»·PEaware :: UAL555 KSFO-KSAN

UAL555 :: KSFO-KSAN

FLIGHT INFORMATION

Flight Status: Arrived
Operator:
United Airlines
More flights by this operator :: More flights under this callsign
Pilot: Henderson P. (1210)
Aircraft: AIRBUS A320
(A320)
More flights by this aircraft type
Origin: KSFO San Francisco Intl
United States
Destination: KSAN San Diego Intl-Lindbergh
United States
More flights between these airports :: More routes between these airports
Route: +OFFSH1 MCKEY LAX COMIX2
File this flight plan on PilotEdge
Remarks:
Altitude:
(Current/Filed)
29,000ft
Speed:
(Current/Filed)
464kts
Departed: 13-Oct-18 07:31 AM
Arrived: 13-Oct-18 08:41 AM
Distance/Time
Traveled:
387nm/1:09
Distance/Time
To Go:
Arrived

Flight Plot

Page will automatically refresh every two minutes.

Flight plan parsing failed; only flown route is shown


Map Options




Map Legend


Flown Route
Filed Route
Departure Airport
Arrival Airport
Navaid (VOR, NDB)
Fix

Horizontal Profiles

Position Reports

Time Latitude Longitude Heading Altitude Ground
Speed
13-Oct-18 06:08 37.620438 -122.389967 27 27ft 0kts
13-Oct-18 06:09 37.620438 -122.389967 27 27ft 0kts
13-Oct-18 06:10 37.620438 -122.389967 27 27ft 0kts
13-Oct-18 06:11 37.620438 -122.389967 27 27ft 0kts
13-Oct-18 06:12 37.620438 -122.389967 27 27ft 0kts
13-Oct-18 06:13 37.620438 -122.389967 27 27ft 0kts
13-Oct-18 06:14 37.620438 -122.389967 27 27ft 0kts
13-Oct-18 06:15 37.620438 -122.389967 27 27ft 0kts
13-Oct-18 06:16 37.620438 -122.389967 27 27ft 0kts
13-Oct-18 06:17 37.620438 -122.389967 27 27ft 0kts
13-Oct-18 06:18 37.620438 -122.389967 27 27ft 0kts
13-Oct-18 06:19 37.620438 -122.389967 27 27ft 0kts
13-Oct-18 06:20 37.620438 -122.389967 27 27ft 0kts
13-Oct-18 06:21 37.620438 -122.389967 27 27ft 0kts
13-Oct-18 06:22 37.620438 -122.389967 27 27ft 0kts
13-Oct-18 06:23 37.620438 -122.389967 27 27ft 0kts
13-Oct-18 06:24 37.620438 -122.389967 27 27ft 0kts
13-Oct-18 06:25 37.620438 -122.389967 27 27ft 0kts
13-Oct-18 06:26 37.620438 -122.389967 27 27ft 0kts
13-Oct-18 06:27 37.620438 -122.389967 27 27ft 0kts
13-Oct-18 06:28 37.620438 -122.389967 27 27ft 0kts
13-Oct-18 06:29 37.620438 -122.389967 27 27ft 0kts
13-Oct-18 06:30 37.620438 -122.389967 27 27ft 0kts
13-Oct-18 06:31 37.620438 -122.389967 27 27ft 0kts
13-Oct-18 06:32 37.620438 -122.389967 27 27ft 0kts
13-Oct-18 06:33 37.620438 -122.389967 27 27ft 0kts
13-Oct-18 06:34 37.620438 -122.389967 27 27ft 0kts
13-Oct-18 06:35 37.620438 -122.389967 27 27ft 0kts
13-Oct-18 06:36 37.620438 -122.389967 27 27ft 0kts
13-Oct-18 06:37 37.620438 -122.389967 27 27ft 0kts
13-Oct-18 06:38 37.620438 -122.389967 27 27ft 0kts
13-Oct-18 06:39 37.620438 -122.389967 27 27ft 0kts
13-Oct-18 06:40 37.620438 -122.389967 27 27ft 0kts
13-Oct-18 06:41 37.620438 -122.389967 27 27ft 0kts
13-Oct-18 06:42 37.620438 -122.389967 27 27ft 0kts
13-Oct-18 06:43 37.620438 -122.389967 27 27ft 0kts
13-Oct-18 06:44 37.620438 -122.389967 27 27ft 0kts
13-Oct-18 06:45 37.620438 -122.389967 27 27ft 0kts
13-Oct-18 06:46 37.620438 -122.389967 27 27ft 0kts
13-Oct-18 06:47 37.620438 -122.389967 27 27ft 0kts
13-Oct-18 06:48 37.620438 -122.389967 27 27ft 0kts
13-Oct-18 06:49 37.620438 -122.389967 27 27ft 0kts
13-Oct-18 06:50 37.620438 -122.389967 27 27ft 0kts
13-Oct-18 06:51 37.620438 -122.389967 27 27ft 0kts
13-Oct-18 06:52 37.620438 -122.389967 27 27ft 0kts
13-Oct-18 06:53 37.620438 -122.389967 27 27ft 0kts
13-Oct-18 06:54 37.620438 -122.389967 27 27ft 0kts
13-Oct-18 06:55 37.620438 -122.389967 27 27ft 0kts
13-Oct-18 06:56 37.620438 -122.389967 27 27ft 0kts
13-Oct-18 06:57 37.620438 -122.389967 27 27ft 0kts
13-Oct-18 06:58 37.620438 -122.389967 27 27ft 0kts
13-Oct-18 06:59 37.620438 -122.389967 27 27ft 0kts
13-Oct-18 07:00 37.620438 -122.389967 27 27ft 0kts
13-Oct-18 07:01 37.620438 -122.389967 27 27ft 0kts
13-Oct-18 07:02 37.620438 -122.389967 27 27ft 0kts
13-Oct-18 07:03 37.620438 -122.389967 27 27ft 0kts
13-Oct-18 07:04 37.620438 -122.389967 27 27ft 0kts
13-Oct-18 07:05 37.620438 -122.389967 27 27ft 0kts
13-Oct-18 07:06 37.620438 -122.389967 27 27ft 0kts
13-Oct-18 07:07 37.620438 -122.389967 27 27ft 0kts
13-Oct-18 07:08 37.620438 -122.389967 27 27ft 0kts
13-Oct-18 07:09 37.620438 -122.389967 27 27ft 0kts
13-Oct-18 07:10 37.620438 -122.389967 27 27ft 0kts
13-Oct-18 07:11 37.620438 -122.389967 27 27ft 0kts
13-Oct-18 07:12 37.620438 -122.389967 27 27ft 0kts
13-Oct-18 07:13 37.620438 -122.389967 27 27ft 0kts
13-Oct-18 07:14 37.620438 -122.389967 27 27ft 0kts
13-Oct-18 07:15 37.620438 -122.389967 27 27ft 0kts
13-Oct-18 07:16 37.620438 -122.389967 27 27ft 0kts
13-Oct-18 07:17 37.620438 -122.389967 27 27ft 0kts
13-Oct-18 07:18 37.620018 -122.390237 27 27ft 2kts
13-Oct-18 07:19 37.619670 -122.390459 26 27ft 0kts
13-Oct-18 07:20 37.619670 -122.390459 26 27ft 0kts
13-Oct-18 07:21 37.619697 -122.390453 5 27ft 0kts
13-Oct-18 07:22 37.620086 -122.391412 297 27ft 5kts
13-Oct-18 07:23 37.621942 -122.391257 26 27ft 11kts
13-Oct-18 07:24 37.621855 -122.387265 117 27ft 12kts
13-Oct-18 07:25 37.620327 -122.383607 117 27ft 14kts
13-Oct-18 07:26 37.618117 -122.379613 157 27ft 16kts
13-Oct-18 07:27 37.614316 -122.381169 207 27ft 15kts
13-Oct-18 07:28 37.611189 -122.383252 208 27ft 14kts
13-Oct-18 07:29 37.608765 -122.384507 126 27ft 5kts
13-Oct-18 07:30 37.608458 -122.383759 117 27ft 0kts
13-Oct-18 07:31 37.608457 -122.383758 117 27ft 0kts
13-Oct-18 07:32 37.609183 -122.382068 28 27ft 31kts
13-Oct-18 07:33 37.643016 -122.362319 5 1236ft 160kts
13-Oct-18 07:34 37.686558 -122.363666 2 3364ft 172kts
13-Oct-18 07:35 37.718355 -122.408687 253 4790ft 244kts
13-Oct-18 07:36 37.660780 -122.469043 216 7414ft 285kts
13-Oct-18 07:37 37.594085 -122.527590 216 10255ft 301kts
13-Oct-18 07:38 37.518061 -122.595500 216 11326ft 370kts
13-Oct-18 07:39 37.418045 -122.649070 182 12252ft 423kts
13-Oct-18 07:40 37.300078 -122.633557 170 14242ft 432kts
13-Oct-18 07:41 37.179373 -122.611729 169 16071ft 444kts
13-Oct-18 07:42 37.055179 -122.589109 169 17770ft 455kts
13-Oct-18 07:43 36.928645 -122.563537 166 19345ft 464kts
13-Oct-18 07:44 36.800978 -122.530324 165 20815ft 473kts
13-Oct-18 07:45 36.671184 -122.496766 165 22146ft 482kts
13-Oct-18 07:46 36.538568 -122.462516 165 23359ft 490kts
13-Oct-18 07:47 36.410201 -122.409217 139 24441ft 486kts
13-Oct-18 07:48 36.321288 -122.283994 126 25417ft 486kts
13-Oct-18 07:49 36.233638 -122.157402 126 26718ft 483kts
13-Oct-18 07:50 36.146549 -122.030670 127 27964ft 483kts
13-Oct-18 07:51 36.059488 -121.904962 127 28954ft 481kts
13-Oct-18 07:52 35.972272 -121.779270 127 28947ft 481kts
13-Oct-18 07:53 35.885057 -121.654119 127 28949ft 481kts
13-Oct-18 07:54 35.797627 -121.529251 127 28976ft 481kts
13-Oct-18 07:55 35.709999 -121.404380 127 28991ft 481kts
13-Oct-18 07:56 35.622396 -121.280157 127 28999ft 480kts
13-Oct-18 07:57 35.535073 -121.156614 127 28996ft 479kts
13-Oct-18 07:58 35.452145 -121.029252 121 28996ft 475kts
13-Oct-18 07:59 35.377250 -120.895635 121 28952ft 475kts
13-Oct-18 08:00 35.301816 -120.762808 121 28941ft 475kts
13-Oct-18 08:01 35.226314 -120.630326 121 28960ft 473kts
13-Oct-18 08:02 35.154071 -120.503712 122 28949ft 474kts
13-Oct-18 08:03 35.081503 -120.377207 122 28977ft 473kts
13-Oct-18 08:04 35.005937 -120.245950 122 28983ft 473kts
13-Oct-18 08:05 34.933849 -120.121073 122 28994ft 474kts
13-Oct-18 08:06 34.857583 -119.989566 122 29011ft 474kts
13-Oct-18 08:07 34.781375 -119.858588 123 29021ft 473kts
13-Oct-18 08:08 34.705246 -119.728248 123 28975ft 473kts
13-Oct-18 08:09 34.629175 -119.598328 123 28938ft 472kts
13-Oct-18 08:10 34.552503 -119.468095 123 28968ft 473kts
13-Oct-18 08:11 34.479213 -119.343868 123 29021ft 474kts
13-Oct-18 08:12 34.412430 -119.231223 123 29011ft 473kts
13-Oct-18 08:13 34.335707 -119.102107 123 28999ft 472kts
13-Oct-18 08:14 34.259052 -118.973573 124 28957ft 471kts
13-Oct-18 08:15 34.182256 -118.845306 124 28941ft 470kts
13-Oct-18 08:16 34.114767 -118.732874 124 28949ft 470kts
13-Oct-18 08:17 34.038250 -118.605973 124 28967ft 469kts
13-Oct-18 08:18 33.973046 -118.498069 125 28987ft 469kts
13-Oct-18 08:19 33.890661 -118.376616 131 28705ft 458kts
13-Oct-18 08:20 33.815656 -118.280211 130 25886ft 455kts
13-Oct-18 08:21 33.729260 -118.167832 128 23993ft 449kts
13-Oct-18 08:22 33.654642 -118.069289 128 23964ft 462kts
13-Oct-18 08:23 33.567534 -117.955621 129 23964ft 463kts
13-Oct-18 08:24 33.475688 -117.846524 133 23979ft 466kts
13-Oct-18 08:25 33.381652 -117.742838 136 22764ft 446kts
13-Oct-18 08:26 33.287624 -117.642592 136 18314ft 454kts
13-Oct-18 08:27 33.197006 -117.546615 137 14852ft 420kts
13-Oct-18 08:28 33.109684 -117.460554 144 12616ft 382kts
13-Oct-18 08:29 33.029566 -117.394142 144 11978ft 323kts
13-Oct-18 08:30 32.962878 -117.338053 144 11526ft 278kts
13-Oct-18 08:31 32.905635 -117.290134 144 10266ft 276kts
13-Oct-18 08:32 32.856718 -117.242414 118 9108ft 279kts
13-Oct-18 08:33 32.823378 -117.147472 111 7879ft 263kts
13-Oct-18 08:34 32.801216 -117.080489 111 6818ft 259kts
13-Oct-18 08:35 32.770910 -116.988128 111 5340ft 255kts
13-Oct-18 08:36 32.750531 -116.925275 111 4971ft 223kts
13-Oct-18 08:37 32.701113 -116.922397 231 4993ft 192kts
13-Oct-18 08:38 32.680882 -116.967677 267 4196ft 188kts
13-Oct-18 08:39 32.694312 -117.027883 285 3091ft 189kts
13-Oct-18 08:40 32.708269 -117.085395 285 2052ft 139kts
13-Oct-18 08:41 32.717000 -117.121522 285 1046ft 136kts
13-Oct-18 08:42 32.727534 -117.164786 286 341ft 135kts
13-Oct-18 08:43 32.735972 -117.199666 285 29ft 34kts
13-Oct-18 08:44 32.734696 -117.202535 196 29ft 10kts
13-Oct-18 08:45 32.734183 -117.203400 267 29ft 0kts
13-Oct-18 08:46 32.734183 -117.203400 267 29ft 0kts
13-Oct-18 08:47 32.734183 -117.203400 267 29ft 0kts
13-Oct-18 08:48 32.734183 -117.203400 267 29ft 0kts
13-Oct-18 08:49 32.734183 -117.203400 267 29ft 0kts
13-Oct-18 08:50 32.734183 -117.203400 267 29ft 0kts
13-Oct-18 08:51 32.734183 -117.203400 267 29ft 0kts
13-Oct-18 08:52 32.734183 -117.203400 267 29ft 0kts
13-Oct-18 08:53 32.734183 -117.203400 267 29ft 0kts
13-Oct-18 08:54 32.734183 -117.203400 267 29ft 0kts
13-Oct-18 08:55 32.734183 -117.203400 267 29ft 0kts
13-Oct-18 08:56 32.734183 -117.203400 267 29ft 0kts
13-Oct-18 08:57 32.734183 -117.203400 267 29ft 0kts

Navigation Log

Ident Type
Flight plan parsing failed, navigation log unavailable